Sencelles, Spain

9:22 AM CEST on August 30, 2016 (GMT +0200)
Sencelles | | Change Station

Elev 394 ft 39.65 °N, 2.90 °E | Updated 3 seconds ago

Clear
Clear
77.0 °F
Feels Like 79 °F
N
11.5
Wind Variable Wind from WNW
Gusts 11.5 mph

Today
High -- | Low -- °F
--% Chance of Precip.
Yesterday
High -- | Low -- °F
Precip. -- in
Pressure 30.06 in
Visibility -9999.0 miles
Clouds
Heat Index 79 °F
Dew Point 65 °F
Humidity 66%
Rainfall 0.00 in
Snow Depth Not available.
7:14 AM 8:22 PM
Waning Crescent, 5% visible
METAR LEPA 300700Z 05009KT CAVOK 25/18 Q1018 NOSIG
Pressure 30.06 in
Visibility -9999.0 miles
Clouds
Heat Index 79 °F
Dew Point 65 °F
Humidity 66%
Rainfall 0.00 in
Snow Depth Not available.
7:14 AM 8:22 PM
Waning Crescent, 5% visible
METAR LEPA 300700Z 05009KT CAVOK 25/18 Q1018 NOSIG

10-Day Weather Forecast

×

Almanac

Astronomy

Aug. 30, 2016 Rise Set
Actual Time
Civil Twilight
Nautical Twilight
Astronomical Twilight
Moon
Length of Visible Light
Length of Day
Tomorrow will be .
, % of the Moon is Illuminated

Today's Extremes

Country Highs Country Lows

Community

WunderPhotos

Upload Photos

1,935,795 photos uploaded!

WunderBlog® & News

Nearby

Air Quality

  Air Quality AQ Index Pollutant
Not available.

Snow Depth

Station Depth Elevation

Earthquake Activity

City Distance Mag. Time & Date
Minimum magnitude displayed is 2.5.

Coastal Water Temperatures

Place Temperature

Stations

Nearby Weather Stations

Station Location Temp. Windchill Dew Point Humidity Wind Precip. Elev Updated Type